createdAt,value
2022-12-20T00:02:00.544Z,6.90
2022-12-20T00:06:12.555Z,7.10
2022-12-20T00:10:26.648Z,7.27
2022-12-20T00:14:36.857Z,7.80
2022-12-20T00:18:47.137Z,7.23
2022-12-20T00:22:57.953Z,7.10
2022-12-20T00:27:15.974Z,8.20
2022-12-20T00:31:28.426Z,7.87
2022-12-20T00:35:43.711Z,8.03
2022-12-20T00:39:54.954Z,8.43
2022-12-20T00:44:22.592Z,8.10
2022-12-20T00:48:35.553Z,8.30
2022-12-20T00:52:45.458Z,7.37
2022-12-20T00:56:56.135Z,8.33
2022-12-20T01:01:17.009Z,7.70
2022-12-20T01:05:30.359Z,8.27
2022-12-20T01:09:43.953Z,7.07
2022-12-20T01:14:00.758Z,8.07
2022-12-20T01:23:11.237Z,8.07
2022-12-20T01:27:21.133Z,8.30
2022-12-20T01:31:35.340Z,7.60
2022-12-20T01:35:59.663Z,6.63
2022-12-20T01:40:12.460Z,6.80
2022-12-20T01:45:03.041Z,6.77
2022-12-20T01:53:42.973Z,6.50
2022-12-20T01:58:03.844Z,7.60
2022-12-20T02:02:25.935Z,6.20
2022-12-20T02:06:35.558Z,6.47
2022-12-20T02:11:12.538Z,6.70
2022-12-20T02:15:38.753Z,7.37
2022-12-20T02:20:23.073Z,6.80
2022-12-20T02:24:59.872Z,8.00
2022-12-20T02:29:26.599Z,6.80
2022-12-20T02:33:55.391Z,7.33
2022-12-20T02:38:07.891Z,6.93
2022-12-20T02:42:22.896Z,6.60
2022-12-20T02:46:47.999Z,7.17
2022-12-20T02:51:05.914Z,7.27
2022-12-20T02:55:17.776Z,8.00
2022-12-20T02:59:33.493Z,7.47
2022-12-20T03:03:44.269Z,7.97
2022-12-20T03:07:55.879Z,7.70
2022-12-20T03:12:06.026Z,6.90
2022-12-20T03:16:16.407Z,7.53
2022-12-20T03:20:26.612Z,8.00
2022-12-20T03:24:37.399Z,7.87
2022-12-20T03:28:46.956Z,7.50
2022-12-20T03:32:56.301Z,8.77
2022-12-20T03:37:06.993Z,10.20
2022-12-20T03:41:18.003Z,9.87
2022-12-20T03:45:27.742Z,7.17
2022-12-20T03:49:37.853Z,6.10
2022-12-20T03:53:52.386Z,6.70
2022-12-20T03:58:06.321Z,7.13
2022-12-20T04:02:16.735Z,6.77
2022-12-20T04:06:30.133Z,5.53
2022-12-20T04:10:59.474Z,7.20
2022-12-20T04:15:12.579Z,8.00
2022-12-20T04:19:23.156Z,7.57
2022-12-20T04:23:33.034Z,7.23
2022-12-20T04:27:44.114Z,5.80
2022-12-20T04:31:56.400Z,5.77
2022-12-20T04:36:20.186Z,6.43
2022-12-20T04:40:29.438Z,5.60
2022-12-20T04:44:38.862Z,4.67
2022-12-20T04:48:58.940Z,5.93
2022-12-20T04:53:27.876Z,6.33
2022-12-20T04:57:38.226Z,6.43
2022-12-20T05:01:48.108Z,6.50
2022-12-20T05:06:00.213Z,6.87
2022-12-20T05:10:10.621Z,6.93
2022-12-20T05:14:20.074Z,7.27
2022-12-20T05:18:29.853Z,7.47
2022-12-20T05:22:58.063Z,6.17
2022-12-20T05:27:07.318Z,7.50
2022-12-20T05:31:17.642Z,7.63
2022-12-20T05:35:27.035Z,8.53
2022-12-20T05:39:38.495Z,8.07
2022-12-20T05:43:48.956Z,7.70
2022-12-20T05:47:58.703Z,7.23
2022-12-20T05:52:09.905Z,7.17
2022-12-20T06:00:59.703Z,6.53
2022-12-20T07:27:24.483Z,3.70
2022-12-20T08:17:01.160Z,2.73
2022-12-20T08:21:15.676Z,2.73
2022-12-20T08:25:25.075Z,3.23
2022-12-20T08:29:34.361Z,3.10
2022-12-20T08:33:43.865Z,3.80
2022-12-20T08:37:55.990Z,3.90
2022-12-20T08:42:07.093Z,2.70
2022-12-20T08:46:16.574Z,4.53
2022-12-20T08:50:27.394Z,3.27
2022-12-20T08:54:38.395Z,3.40
2022-12-20T08:58:48.235Z,4.43
2022-12-20T09:02:57.837Z,5.13
2022-12-20T09:07:07.217Z,5.00
2022-12-20T09:11:20.787Z,5.20
2022-12-20T09:15:29.971Z,4.53
2022-12-20T09:19:39.594Z,3.67
2022-12-20T09:23:49.514Z,3.20
2022-12-20T09:28:00.236Z,3.20
2022-12-20T09:32:13.051Z,2.40
2022-12-20T09:36:41.834Z,1.90
2022-12-20T09:41:00.040Z,4.20
2022-12-20T09:45:17.244Z,3.20
2022-12-20T09:49:32.415Z,3.47
2022-12-20T09:54:10.203Z,5.23
2022-12-20T09:58:48.814Z,4.93
2022-12-20T10:08:18.276Z,5.10
2022-12-20T10:17:32.375Z,4.73
2022-12-20T10:36:52.119Z,5.03
2022-12-20T10:41:27.931Z,4.20
2022-12-20T10:46:00.713Z,3.97
2022-12-20T10:50:29.736Z,2.40
2022-12-20T10:55:16.089Z,2.50
2022-12-20T10:59:38.205Z,2.03
2022-12-20T11:03:59.133Z,2.33
2022-12-20T11:08:39.129Z,2.30
2022-12-20T11:12:58.685Z,2.30
2022-12-20T11:17:23.873Z,2.80
2022-12-20T11:21:42.418Z,2.90
2022-12-20T13:57:02.320Z,4.00
2022-12-20T14:01:36.168Z,4.27
2022-12-20T14:15:28.026Z,4.80
2022-12-20T19:31:26.438Z,8.20
2022-12-20T19:40:18.155Z,9.53
2022-12-20T19:44:28.825Z,10.30
2022-12-20T19:48:45.839Z,9.20
2022-12-20T19:52:59.836Z,8.70
2022-12-20T19:57:11.979Z,9.57
2022-12-20T20:01:34.311Z,7.37
2022-12-20T20:05:47.837Z,6.40
2022-12-20T20:10:07.712Z,5.07
2022-12-20T20:14:40.015Z,4.57
2022-12-20T20:18:56.877Z,3.33
2022-12-20T20:23:06.475Z,4.17
2022-12-20T20:27:18.277Z,4.03
2022-12-20T20:41:57.017Z,2.90
2022-12-20T20:51:32.974Z,2.00
2022-12-20T20:55:50.816Z,2.20
2022-12-20T21:00:20.209Z,2.30
2022-12-20T21:04:58.678Z,2.27
2022-12-20T21:09:33.449Z,2.37
2022-12-20T21:14:11.868Z,2.30
2022-12-20T21:18:26.814Z,2.50
2022-12-20T21:22:52.538Z,2.40
2022-12-20T21:38:23.872Z,2.00
2022-12-20T21:43:09.273Z,2.00
2022-12-20T21:52:37.400Z,2.03
2022-12-20T21:56:47.037Z,1.70
2022-12-20T22:01:25.028Z,2.60
2022-12-20T22:06:12.033Z,1.93
2022-12-20T22:10:23.397Z,1.77
2022-12-20T22:14:35.633Z,2.10
2022-12-20T22:18:55.790Z,2.20
2022-12-20T22:27:40.411Z,1.97
2022-12-20T22:36:38.743Z,2.93
2022-12-20T22:40:56.712Z,3.47
2022-12-20T22:50:13.460Z,3.13
2022-12-20T22:54:28.964Z,2.50
2022-12-20T22:58:40.424Z,3.23
2022-12-20T23:02:52.315Z,3.47
2022-12-20T23:07:06.225Z,3.07
2022-12-20T23:11:37.983Z,3.57
2022-12-20T23:15:52.187Z,3.10
2022-12-20T23:25:37.367Z,3.93
2022-12-20T23:29:55.659Z,3.80
2022-12-20T23:34:09.371Z,3.60
2022-12-20T23:38:37.391Z,2.60
2022-12-20T23:43:11.306Z,1.80
2022-12-20T23:47:25.688Z,1.50
2022-12-20T23:52:26.136Z,2.57
2022-12-20T23:56:51.870Z,1.97
